createdAt,value
2019-05-09T00:01:04.080Z,11.64
2019-05-09T00:03:33.513Z,11.60
2019-05-09T00:06:04.513Z,11.56
2019-05-09T00:08:33.586Z,11.63
2019-05-09T00:11:03.738Z,11.67
2019-05-09T00:13:34.107Z,11.67
2019-05-09T00:16:03.756Z,11.72
2019-05-09T00:18:33.737Z,11.71
2019-05-09T00:21:13.335Z,11.76
2019-05-09T00:23:43.695Z,11.79
2019-05-09T00:26:13.422Z,11.83
2019-05-09T00:28:47.533Z,11.86
2019-05-09T00:31:43.915Z,11.90
2019-05-09T00:34:16.168Z,11.94
2019-05-09T00:36:44.791Z,11.97
2019-05-09T00:39:13.652Z,11.97
2019-05-09T00:41:43.525Z,12.02
2019-05-09T00:44:19.421Z,12.02
2019-05-09T00:46:57.501Z,12.04
2019-05-09T00:49:27.237Z,12.04
2019-05-09T00:51:56.438Z,11.94
2019-05-09T00:54:25.057Z,11.88
2019-05-09T00:56:54.098Z,11.83
2019-05-09T00:59:24.109Z,11.81
2019-05-09T01:01:54.318Z,11.73
2019-05-09T01:04:24.178Z,11.66
2019-05-09T01:06:54.039Z,11.60
2019-05-09T01:09:24.164Z,11.48
2019-05-09T01:11:53.458Z,11.41
2019-05-09T01:14:23.442Z,11.24
2019-05-09T01:16:53.474Z,11.03
2019-05-09T01:19:23.399Z,10.91
2019-05-09T01:21:54.148Z,10.77
2019-05-09T01:24:23.233Z,10.77
2019-05-09T01:26:54.195Z,10.68
2019-05-09T01:29:24.186Z,10.66
2019-05-09T01:31:55.026Z,10.59
2019-05-09T01:34:27.272Z,10.57
2019-05-09T01:37:06.285Z,10.56
2019-05-09T01:39:36.235Z,10.54
2019-05-09T01:42:06.113Z,10.48
2019-05-09T01:44:35.515Z,10.50
2019-05-09T01:47:04.572Z,10.47
2019-05-09T01:49:34.355Z,10.48
2019-05-09T01:52:03.777Z,10.48
2019-05-09T01:54:33.386Z,10.48
2019-05-09T01:57:03.266Z,10.45
2019-05-09T01:59:33.873Z,10.45
2019-05-09T02:02:08.154Z,10.45
2019-05-09T02:04:33.759Z,10.46
2019-05-09T02:07:04.126Z,10.46
2019-05-09T02:09:34.228Z,10.47
2019-05-09T02:12:04.070Z,10.47
2019-05-09T02:14:46.036Z,10.46
2019-05-09T02:17:38.923Z,10.47
2019-05-09T02:20:08.374Z,10.47
2019-05-09T02:22:37.624Z,10.48
2019-05-09T02:25:07.440Z,10.47
2019-05-09T02:27:36.087Z,10.49
2019-05-09T02:30:06.469Z,10.47
2019-05-09T02:32:35.699Z,10.45
2019-05-09T02:35:05.371Z,10.46
2019-05-09T02:37:34.445Z,10.45
2019-05-09T02:40:03.358Z,10.46
2019-05-09T02:42:32.060Z,10.47
2019-05-09T02:45:00.787Z,10.47
2019-05-09T02:47:29.433Z,10.46
2019-05-09T02:49:59.076Z,10.45
2019-05-09T02:52:28.780Z,10.46
2019-05-09T02:54:58.537Z,10.47
2019-05-09T02:57:29.372Z,10.48
2019-05-09T03:00:29.509Z,10.47
2019-05-09T03:03:13.037Z,10.47
2019-05-09T03:05:42.028Z,10.45
2019-05-09T03:08:10.732Z,10.48
2019-05-09T03:10:39.397Z,10.47
2019-05-09T03:13:09.426Z,10.47
2019-05-09T03:15:39.361Z,10.49
2019-05-09T03:18:09.164Z,10.48
2019-05-09T03:20:59.777Z,10.50
2019-05-09T03:23:28.814Z,10.54
2019-05-09T03:25:58.820Z,10.52
2019-05-09T03:28:43.723Z,10.54
2019-05-09T03:31:14.562Z,10.54
2019-05-09T03:33:44.043Z,10.58
2019-05-09T03:36:12.959Z,10.60
2019-05-09T03:38:41.633Z,10.60
2019-05-09T03:41:10.842Z,10.59
2019-05-09T03:43:40.049Z,10.61
2019-05-09T03:46:24.561Z,10.66
2019-05-09T03:48:58.140Z,10.67
2019-05-09T03:51:27.530Z,10.66
2019-05-09T03:53:57.591Z,10.66
2019-05-09T03:56:31.439Z,10.66
2019-05-09T03:59:00.066Z,10.72
2019-05-09T04:01:29.009Z,10.78
2019-05-09T04:03:58.507Z,10.84
2019-05-09T04:06:28.207Z,10.87
2019-05-09T04:08:58.513Z,10.79
2019-05-09T04:11:27.847Z,10.85
2019-05-09T04:14:00.924Z,10.89
2019-05-09T04:16:30.144Z,10.86
2019-05-09T04:18:58.806Z,10.87
2019-05-09T04:21:28.071Z,10.88
2019-05-09T04:23:58.538Z,10.85
2019-05-09T04:26:51.222Z,10.89
2019-05-09T04:29:19.936Z,10.89
2019-05-09T04:31:49.189Z,10.84
2019-05-09T04:34:18.534Z,10.90
2019-05-09T04:36:48.373Z,10.88
2019-05-09T04:39:23.360Z,10.86
2019-05-09T04:41:48.928Z,10.89
2019-05-09T04:44:28.408Z,10.92
2019-05-09T04:47:00.162Z,10.88
2019-05-09T04:49:30.049Z,10.87
2019-05-09T04:51:58.848Z,10.89
2019-05-09T04:54:28.064Z,10.93
2019-05-09T04:56:57.560Z,10.95
2019-05-09T04:59:28.312Z,10.94
2019-05-09T05:02:08.756Z,11.06
2019-05-09T05:04:37.753Z,11.05
2019-05-09T05:07:07.618Z,10.99
2019-05-09T05:09:37.935Z,10.81
2019-05-09T05:12:08.380Z,10.87
2019-05-09T05:14:38.498Z,10.85
2019-05-09T05:17:11.217Z,10.83
2019-05-09T05:19:38.436Z,10.85
2019-05-09T05:22:34.577Z,10.81
2019-05-09T05:25:04.476Z,10.82
2019-05-09T05:27:33.093Z,10.76
2019-05-09T05:30:02.013Z,10.78
2019-05-09T05:32:57.932Z,10.89
2019-05-09T05:35:31.742Z,11.04
2019-05-09T05:38:01.020Z,10.92
2019-05-09T05:40:32.917Z,10.89
2019-05-09T05:43:00.692Z,10.95
2019-05-09T05:45:31.235Z,10.94
2019-05-09T05:48:08.669Z,10.97
2019-05-09T05:50:38.221Z,11.03
2019-05-09T05:53:07.962Z,11.04
2019-05-09T05:55:37.947Z,10.88
2019-05-09T05:58:08.555Z,11.00
2019-05-09T06:00:37.812Z,11.06
2019-05-09T06:03:08.718Z,11.14
2019-05-09T06:05:38.356Z,11.09
2019-05-09T06:08:08.197Z,11.13
2019-05-09T06:10:37.844Z,11.33
2019-05-09T06:13:07.932Z,11.40
2019-05-09T06:15:37.873Z,11.52
2019-05-09T06:18:07.983Z,11.53
2019-05-09T06:20:38.562Z,11.56
2019-05-09T06:23:08.616Z,11.52
2019-05-09T06:25:38.959Z,11.58
2019-05-09T06:28:08.437Z,11.53
2019-05-09T06:30:40.892Z,11.64
2019-05-09T06:33:08.912Z,11.67
2019-05-09T06:35:38.082Z,11.65
2019-05-09T06:38:07.899Z,11.70
2019-05-09T06:40:38.288Z,11.68
2019-05-09T06:43:21.343Z,11.65
2019-05-09T06:46:24.475Z,11.54
2019-05-09T06:48:53.385Z,11.77
2019-05-09T06:51:22.635Z,11.65
2019-05-09T06:53:51.285Z,11.83
2019-05-09T06:56:20.181Z,11.83
2019-05-09T06:58:49.096Z,11.97
2019-05-09T07:01:30.883Z,11.85
2019-05-09T07:04:05.429Z,12.02
2019-05-09T07:06:38.146Z,12.18
2019-05-09T07:09:14.285Z,12.43
2019-05-09T07:11:43.252Z,12.31
2019-05-09T07:14:33.010Z,12.35
2019-05-09T07:17:00.700Z,12.35
2019-05-09T07:19:29.389Z,12.39
2019-05-09T07:22:18.457Z,12.22
2019-05-09T07:25:06.729Z,12.20
2019-05-09T07:27:31.272Z,12.30
2019-05-09T07:30:03.043Z,12.34
2019-05-09T07:32:38.189Z,12.45
2019-05-09T07:35:08.813Z,12.59
2019-05-09T07:37:38.315Z,12.62
2019-05-09T07:40:08.458Z,12.81
2019-05-09T07:42:39.101Z,12.71
2019-05-09T07:45:09.017Z,12.73
2019-05-09T07:47:38.857Z,12.82
2019-05-09T07:50:08.718Z,12.87
2019-05-09T07:52:38.776Z,13.05
2019-05-09T07:55:09.052Z,13.01
2019-05-09T07:57:46.184Z,13.17
2019-05-09T08:00:09.560Z,13.29
2019-05-09T08:02:38.849Z,13.41
2019-05-09T08:05:08.744Z,13.62
2019-05-09T08:07:38.184Z,13.49
2019-05-09T08:10:08.829Z,13.61
2019-05-09T08:12:38.898Z,13.72
2019-05-09T08:15:16.137Z,13.79
2019-05-09T08:17:38.601Z,13.76
2019-05-09T08:20:08.122Z,13.89
2019-05-09T08:22:42.056Z,13.83
2019-05-09T08:25:08.252Z,13.50
2019-05-09T08:27:37.813Z,13.64
2019-05-09T08:30:08.233Z,13.66
2019-05-09T08:32:37.727Z,13.69
2019-05-09T08:35:08.419Z,13.67
2019-05-09T08:37:39.069Z,13.45
2019-05-09T08:40:08.167Z,13.67
2019-05-09T08:42:37.772Z,13.67
2019-05-09T08:45:17.394Z,13.63
2019-05-09T08:47:38.212Z,13.66
2019-05-09T08:50:23.424Z,13.91
2019-05-09T08:52:52.392Z,14.04
2019-05-09T08:55:21.930Z,14.15
2019-05-09T08:57:50.574Z,13.95
2019-05-09T09:00:19.762Z,13.92
2019-05-09T09:02:48.443Z,13.87
2019-05-09T09:05:18.755Z,13.68
2019-05-09T09:07:48.448Z,13.87
2019-05-09T09:10:18.819Z,14.02
2019-05-09T09:12:48.024Z,14.14
2019-05-09T09:15:18.023Z,13.96
2019-05-09T09:17:49.149Z,14.01
2019-05-09T09:20:18.290Z,13.85
2019-05-09T09:22:47.997Z,14.04
2019-05-09T09:25:18.408Z,14.23
2019-05-09T09:27:50.770Z,14.12
2019-05-09T09:30:24.673Z,14.41
2019-05-09T09:32:48.532Z,14.57
2019-05-09T09:35:18.684Z,14.93
2019-05-09T09:37:51.924Z,14.80
2019-05-09T09:40:18.189Z,14.94
2019-05-09T09:42:48.979Z,15.23
2019-05-09T09:45:18.440Z,15.33
2019-05-09T09:47:48.408Z,15.48
2019-05-09T09:50:17.905Z,15.25
2019-05-09T09:52:49.006Z,15.52
2019-05-09T09:55:18.460Z,15.68
2019-05-09T09:57:48.429Z,15.50
2019-05-09T10:00:48.264Z,15.57
2019-05-09T10:03:24.944Z,16.11
2019-05-09T10:05:53.905Z,16.00
2019-05-09T10:08:22.796Z,16.05
2019-05-09T10:10:52.091Z,16.00
2019-05-09T10:13:21.209Z,16.09
2019-05-09T10:16:01.059Z,16.70
2019-05-09T10:18:47.850Z,16.45
2019-05-09T10:21:27.700Z,17.13
2019-05-09T10:23:57.566Z,18.08
2019-05-09T10:26:28.349Z,18.09
2019-05-09T10:28:57.167Z,18.01
2019-05-09T10:31:28.078Z,18.04
2019-05-09T10:33:58.028Z,18.40
2019-05-09T10:36:27.852Z,18.57
2019-05-09T10:38:58.491Z,18.51
2019-05-09T10:41:27.938Z,19.04
2019-05-09T10:44:12.710Z,19.02
2019-05-09T10:46:58.870Z,18.81
2019-05-09T10:49:25.956Z,18.31
2019-05-09T10:51:54.844Z,18.50
2019-05-09T10:54:23.816Z,18.13
2019-05-09T10:56:53.061Z,17.98
2019-05-09T10:59:22.350Z,17.93
2019-05-09T11:01:51.306Z,17.85
2019-05-09T11:04:20.524Z,17.86
2019-05-09T11:06:49.141Z,17.92
2019-05-09T11:09:18.386Z,17.82
2019-05-09T11:11:48.419Z,17.66
2019-05-09T11:14:32.554Z,17.98
2019-05-09T11:16:54.211Z,17.55
2019-05-09T11:19:18.713Z,17.62
2019-05-09T11:21:47.927Z,18.05
2019-05-09T11:24:18.738Z,17.78
2019-05-09T11:26:48.085Z,17.49
2019-05-09T11:29:18.740Z,17.85
2019-05-09T11:31:47.806Z,17.64
2019-05-09T11:34:18.886Z,17.42
2019-05-09T11:36:49.731Z,17.63
2019-05-09T11:39:35.079Z,18.12
2019-05-09T11:41:48.839Z,17.73
2019-05-09T11:44:18.419Z,18.40
2019-05-09T11:46:47.775Z,18.00
2019-05-09T11:49:18.031Z,17.88
2019-05-09T11:51:48.277Z,18.52
2019-05-09T11:54:19.526Z,18.34
2019-05-09T11:56:48.229Z,17.69
2019-05-09T11:59:18.937Z,18.11
2019-05-09T12:01:48.311Z,17.75
2019-05-09T12:04:18.763Z,17.46
2019-05-09T12:06:49.351Z,17.25
2019-05-09T12:09:18.274Z,17.44
2019-05-09T12:11:48.295Z,17.20
2019-05-09T12:14:17.538Z,17.33
2019-05-09T12:16:48.077Z,17.81
2019-05-09T12:19:17.945Z,17.26
2019-05-09T12:21:48.314Z,17.33
2019-05-09T12:24:18.359Z,17.65
2019-05-09T12:26:48.161Z,17.89
2019-05-09T12:29:19.630Z,17.93
2019-05-09T12:31:48.644Z,18.34
2019-05-09T12:34:19.250Z,18.88
2019-05-09T12:36:49.275Z,19.43
2019-05-09T12:39:19.000Z,19.19
2019-05-09T12:41:48.646Z,19.48
2019-05-09T12:44:18.452Z,19.44
2019-05-09T12:46:48.767Z,18.70
2019-05-09T12:49:19.010Z,18.50
2019-05-09T12:51:47.987Z,19.50
2019-05-09T12:54:19.077Z,20.61
2019-05-09T12:56:48.652Z,20.17
2019-05-09T12:59:18.794Z,19.78
2019-05-09T13:01:49.129Z,18.96
2019-05-09T13:04:18.814Z,18.27
2019-05-09T13:06:48.909Z,17.79
2019-05-09T13:09:18.117Z,17.59
2019-05-09T13:11:48.294Z,17.43
2019-05-09T13:14:19.412Z,17.04
2019-05-09T13:17:00.065Z,16.93
2019-05-09T13:19:53.659Z,16.97
2019-05-09T13:22:22.543Z,17.03
2019-05-09T13:24:51.148Z,17.26
2019-05-09T13:27:19.801Z,17.75
2019-05-09T13:29:49.273Z,17.68
2019-05-09T13:32:18.917Z,18.20
2019-05-09T13:34:48.661Z,18.93
2019-05-09T13:37:18.866Z,17.71
2019-05-09T13:39:48.110Z,17.15
2019-05-09T13:42:19.685Z,16.91
2019-05-09T13:44:47.627Z,16.49
2019-05-09T13:47:17.898Z,16.38
2019-05-09T13:49:48.444Z,16.35
2019-05-09T13:52:18.067Z,16.24
2019-05-09T13:54:48.242Z,16.29
2019-05-09T13:57:18.859Z,16.35
2019-05-09T13:59:48.656Z,16.28
2019-05-09T14:02:18.750Z,16.60
2019-05-09T14:04:48.718Z,16.38
2019-05-09T14:07:19.263Z,15.80
2019-05-09T14:09:48.644Z,15.54
2019-05-09T14:12:18.076Z,15.84
2019-05-09T14:14:46.696Z,15.77
2019-05-09T14:17:16.182Z,15.76
2019-05-09T14:19:50.310Z,15.77
2019-05-09T14:22:17.933Z,15.49
2019-05-09T14:24:48.363Z,15.63
2019-05-09T14:27:18.664Z,15.48
2019-05-09T14:29:49.661Z,15.50
2019-05-09T14:32:18.923Z,15.69
2019-05-09T14:34:48.227Z,16.38
2019-05-09T14:37:18.151Z,17.28
2019-05-09T14:39:55.948Z,17.94
2019-05-09T14:42:18.843Z,18.43
2019-05-09T14:44:47.987Z,19.07
2019-05-09T14:47:17.843Z,19.86
2019-05-09T14:49:49.969Z,18.93
2019-05-09T14:52:17.742Z,18.93
2019-05-09T14:54:48.301Z,18.14
2019-05-09T14:57:17.550Z,17.59
2019-05-09T14:59:46.763Z,17.19
2019-05-09T15:02:17.906Z,16.90
2019-05-09T15:04:48.553Z,16.80
2019-05-09T15:07:19.259Z,16.69
2019-05-09T15:09:47.445Z,16.51
2019-05-09T15:12:18.461Z,16.61
2019-05-09T15:14:47.961Z,16.56
2019-05-09T15:17:18.510Z,16.41
2019-05-09T15:19:59.439Z,16.50
2019-05-09T15:22:18.261Z,16.36
2019-05-09T15:24:47.839Z,16.06
2019-05-09T15:27:17.689Z,16.10
2019-05-09T15:29:48.668Z,16.01
2019-05-09T15:32:18.362Z,15.93
2019-05-09T15:34:47.278Z,15.68
2019-05-09T15:37:18.419Z,15.77
2019-05-09T15:39:48.475Z,15.72
2019-05-09T15:42:18.384Z,15.98
2019-05-09T15:44:47.854Z,16.40
2019-05-09T15:47:27.623Z,16.35
2019-05-09T15:49:57.983Z,16.73
2019-05-09T15:52:28.498Z,17.68
2019-05-09T15:54:58.054Z,18.16
2019-05-09T15:57:27.576Z,18.54
2019-05-09T15:59:58.882Z,18.87
2019-05-09T16:02:28.223Z,18.87
2019-05-09T16:04:58.399Z,19.19
2019-05-09T16:07:28.494Z,19.11
2019-05-09T16:09:58.154Z,18.56
2019-05-09T16:12:27.756Z,18.57
2019-05-09T16:14:56.925Z,17.93
2019-05-09T16:17:28.315Z,17.83
2019-05-09T16:19:57.766Z,18.00
2019-05-09T16:22:28.423Z,18.12
2019-05-09T16:24:57.819Z,18.20
2019-05-09T16:27:26.503Z,17.82
2019-05-09T16:29:57.764Z,17.71
2019-05-09T16:32:25.614Z,17.66
2019-05-09T16:34:54.241Z,17.17
2019-05-09T16:37:22.879Z,17.12
2019-05-09T16:39:51.880Z,17.20
2019-05-09T16:42:20.868Z,16.97
2019-05-09T16:44:50.299Z,16.84
2019-05-09T16:47:21.751Z,17.15
2019-05-09T16:49:50.241Z,17.65
2019-05-09T16:52:19.200Z,18.09
2019-05-09T16:54:50.502Z,18.05
2019-05-09T16:57:19.448Z,17.74
2019-05-09T16:59:48.149Z,17.35
2019-05-09T17:02:23.952Z,16.87
2019-05-09T17:04:47.791Z,16.52
2019-05-09T17:07:18.067Z,16.32
2019-05-09T17:09:48.508Z,16.08
2019-05-09T17:12:18.614Z,15.91
2019-05-09T17:14:47.717Z,15.88
2019-05-09T17:17:17.869Z,15.71
2019-05-09T17:19:48.083Z,15.58
2019-05-09T17:22:35.625Z,15.56
2019-05-09T17:25:05.185Z,15.65
2019-05-09T17:27:34.089Z,15.54
2019-05-09T17:30:02.769Z,15.59
2019-05-09T17:32:31.766Z,15.38
2019-05-09T17:35:00.664Z,15.15
2019-05-09T17:37:29.392Z,14.78
2019-05-09T17:39:59.322Z,14.69
2019-05-09T17:42:27.931Z,14.49
2019-05-09T17:44:57.902Z,14.44
2019-05-09T17:47:28.388Z,14.45
2019-05-09T17:49:57.510Z,14.50
2019-05-09T17:52:26.101Z,14.50
2019-05-09T17:54:55.097Z,14.35
2019-05-09T17:57:24.024Z,14.32
2019-05-09T17:59:52.955Z,14.02
2019-05-09T18:02:22.254Z,13.88
2019-05-09T18:07:22.390Z,13.70
2019-05-09T18:09:51.697Z,13.76
2019-05-09T18:12:20.690Z,13.77
2019-05-09T18:14:49.675Z,13.97
2019-05-09T18:17:18.980Z,13.89
2019-05-09T18:19:47.629Z,13.72
2019-05-09T18:22:18.605Z,13.69
2019-05-09T18:24:48.257Z,13.54
2019-05-09T18:27:18.106Z,13.48
2019-05-09T18:29:47.736Z,13.36
2019-05-09T18:32:35.582Z,13.36
2019-05-09T18:35:12.148Z,13.35
2019-05-09T18:37:41.035Z,13.35
2019-05-09T18:40:10.030Z,13.37
2019-05-09T18:42:38.922Z,13.41
2019-05-09T18:45:08.733Z,13.37
2019-05-09T18:47:37.724Z,13.36
2019-05-09T18:50:14.228Z,13.35
2019-05-09T18:52:42.931Z,13.38
2019-05-09T18:55:12.728Z,13.25
2019-05-09T18:57:41.688Z,13.22
2019-05-09T19:00:11.811Z,13.30
2019-05-09T19:02:41.539Z,13.20
2019-05-09T19:05:13.047Z,13.22
2019-05-09T19:07:41.870Z,13.20
2019-05-09T19:10:11.456Z,13.29
2019-05-09T19:12:42.030Z,13.15
2019-05-09T19:15:16.241Z,12.96
2019-05-09T19:17:52.793Z,12.86
2019-05-09T19:20:43.914Z,12.84
2019-05-09T19:23:12.907Z,12.76
2019-05-09T19:25:41.880Z,12.71
2019-05-09T19:28:10.778Z,12.58
2019-05-09T19:30:39.976Z,12.50
2019-05-09T19:33:08.970Z,12.63
2019-05-09T19:35:38.392Z,12.54
2019-05-09T19:38:07.378Z,12.60
2019-05-09T19:40:36.291Z,12.50
2019-05-09T19:43:04.961Z,12.50
2019-05-09T19:45:34.555Z,12.55
2019-05-09T19:48:03.649Z,12.57
2019-05-09T19:50:32.543Z,12.46
2019-05-09T19:53:04.858Z,12.36
2019-05-09T19:55:33.809Z,12.30
2019-05-09T19:58:02.831Z,12.24
2019-05-09T20:00:32.422Z,12.28
2019-05-09T20:03:01.158Z,12.27
2019-05-09T20:05:31.439Z,12.43
2019-05-09T20:08:00.412Z,12.41
2019-05-09T20:10:47.057Z,12.37
2019-05-09T20:13:41.208Z,12.55
2019-05-09T20:16:10.607Z,12.52
2019-05-09T20:18:39.606Z,12.44
2019-05-09T20:21:08.473Z,12.37
2019-05-09T20:23:37.151Z,12.33
2019-05-09T20:26:06.392Z,12.26
2019-05-09T20:28:35.575Z,12.21
2019-05-09T20:31:07.642Z,12.12
2019-05-09T20:33:37.287Z,12.06
2019-05-09T20:36:06.174Z,12.02
2019-05-09T20:38:35.140Z,12.02
2019-05-09T20:41:04.297Z,11.99
2019-05-09T20:43:33.741Z,12.05
2019-05-09T20:46:02.802Z,11.96
2019-05-09T20:48:32.033Z,12.01
2019-05-09T20:51:01.230Z,11.96
2019-05-09T20:53:30.004Z,11.93
2019-05-09T20:55:58.809Z,11.92
2019-05-09T20:58:28.031Z,11.86
2019-05-09T21:00:56.805Z,12.21
2019-05-09T21:03:25.898Z,12.80
2019-05-09T21:05:55.112Z,12.53
2019-05-09T21:08:23.923Z,12.38
2019-05-09T21:10:56.878Z,12.19
2019-05-09T21:13:26.033Z,12.29
2019-05-09T21:15:58.194Z,12.11
2019-05-09T21:18:30.185Z,12.06
2019-05-09T21:20:59.602Z,12.37
2019-05-09T21:23:29.009Z,12.50
2019-05-09T21:25:58.388Z,12.49
2019-05-09T21:28:27.867Z,12.45
2019-05-09T21:30:56.665Z,12.33
2019-05-09T21:33:25.804Z,12.36
2019-05-09T21:35:55.078Z,12.55
2019-05-09T21:38:24.300Z,12.35
2019-05-09T21:40:53.195Z,12.38
2019-05-09T21:43:21.800Z,12.43
2019-05-09T21:45:50.745Z,12.55
2019-05-09T21:48:19.659Z,12.11
2019-05-09T21:50:48.268Z,12.05
2019-05-09T21:53:17.245Z,11.85
2019-05-09T21:55:46.246Z,11.77
2019-05-09T21:58:15.121Z,11.68
2019-05-09T22:00:45.053Z,11.66
2019-05-09T22:03:14.056Z,11.64
2019-05-09T22:05:43.027Z,11.58
2019-05-09T22:08:11.920Z,11.52
2019-05-09T22:10:41.109Z,11.53
2019-05-09T22:13:10.016Z,11.46
2019-05-09T22:15:38.995Z,11.49
2019-05-09T22:18:08.013Z,11.40
2019-05-09T22:20:36.896Z,11.35
2019-05-09T22:23:06.668Z,11.32
2019-05-09T22:25:35.687Z,11.23
2019-05-09T22:28:04.404Z,11.16
2019-05-09T22:30:33.638Z,11.09
2019-05-09T22:33:02.674Z,11.03
2019-05-09T22:35:31.662Z,11.05
2019-05-09T22:38:00.867Z,10.98
2019-05-09T22:40:29.853Z,10.98
2019-05-09T22:42:58.506Z,10.98
2019-05-09T22:45:27.543Z,10.94
2019-05-09T22:47:56.149Z,10.88
2019-05-09T22:50:25.104Z,10.82
2019-05-09T22:52:54.001Z,10.78
2019-05-09T22:55:22.899Z,10.76
2019-05-09T22:57:52.361Z,10.75
2019-05-09T23:00:21.290Z,10.68
2019-05-09T23:02:49.921Z,10.59
2019-05-09T23:05:18.532Z,10.51
2019-05-09T23:07:47.456Z,10.47
2019-05-09T23:10:16.110Z,10.43
2019-05-09T23:12:45.039Z,10.38
2019-05-09T23:15:15.673Z,10.34
2019-05-09T23:17:44.861Z,10.27
2019-05-09T23:20:32.670Z,10.24
2019-05-09T23:23:22.071Z,10.23
2019-05-09T23:25:50.968Z,10.21
2019-05-09T23:28:19.899Z,10.15
2019-05-09T23:30:50.520Z,10.10
2019-05-09T23:33:20.507Z,10.07
2019-05-09T23:35:49.394Z,10.08
2019-05-09T23:38:18.286Z,10.03
2019-05-09T23:40:47.297Z,10.00
2019-05-09T23:43:16.198Z,9.94
2019-05-09T23:45:44.877Z,9.96
2019-05-09T23:48:14.158Z,9.89
2019-05-09T23:50:43.458Z,9.84
2019-05-09T23:53:12.105Z,9.82
2019-05-09T23:55:58.630Z,9.82
2019-05-09T23:58:45.460Z,9.82
